sensor_id;sensor_type;location;lat;lon;timestamp;pressure;altitude;pressure_sealevel;temperature;humidity
44044;BME280;29709;52.396;16.796;2023-07-22T00:00:54;101138.85;;;18.68;68.74
44044;BME280;29709;52.396;16.796;2023-07-22T00:04:07;101135.21;;;18.68;68.92
44044;BME280;29709;52.396;16.796;2023-07-22T00:07:20;101134.14;;;18.69;69.27
44044;BME280;29709;52.396;16.796;2023-07-22T00:10:33;101121.52;;;18.66;68.23
44044;BME280;29709;52.396;16.796;2023-07-22T00:13:47;101126.41;;;18.64;67.51
44044;BME280;29709;52.396;16.796;2023-07-22T00:17:00;101135.61;;;18.58;68.09
44044;BME280;29709;52.396;16.796;2023-07-22T00:20:13;101130.88;;;18.52;69.96
44044;BME280;29709;52.396;16.796;2023-07-22T00:23:29;101141.59;;;18.49;70.28
44044;BME280;29709;52.396;16.796;2023-07-22T00:26:43;101135.37;;;18.46;70.57
44044;BME280;29709;52.396;16.796;2023-07-22T00:29:56;101137.07;;;18.41;70.50
44044;BME280;29709;52.396;16.796;2023-07-22T00:33:09;101130.86;;;18.39;69.94
44044;BME280;29709;52.396;16.796;2023-07-22T00:36:22;101141.11;;;18.32;71.24
44044;BME280;29709;52.396;16.796;2023-07-22T00:39:36;101140.26;;;18.31;71.23
44044;BME280;29709;52.396;16.796;2023-07-22T00:42:49;101139.83;;;18.28;68.97
44044;BME280;29709;52.396;16.796;2023-07-22T00:46:02;101144.30;;;18.15;71.15
44044;BME280;29709;52.396;16.796;2023-07-22T00:49:16;101144.49;;;18.07;70.86
44044;BME280;29709;52.396;16.796;2023-07-22T00:52:30;101147.48;;;18.06;70.66
44044;BME280;29709;52.396;16.796;2023-07-22T00:55:44;101146.41;;;18.07;71.83
44044;BME280;29709;52.396;16.796;2023-07-22T00:58:58;101137.42;;;18.05;68.10
44044;BME280;29709;52.396;16.796;2023-07-22T01:02:11;101128.84;;;18.00;70.28
44044;BME280;29709;52.396;16.796;2023-07-22T01:05:26;101144.84;;;17.91;71.27
44044;BME280;29709;52.396;16.796;2023-07-22T01:08:40;101144.84;;;17.91;68.07
44044;BME280;29709;52.396;16.796;2023-07-22T01:11:53;101147.59;;;17.78;70.82
44044;BME280;29709;52.396;16.796;2023-07-22T01:15:07;101151.21;;;17.72;72.47
44044;BME280;29709;52.396;16.796;2023-07-22T01:18:21;101149.29;;;17.72;72.15
44044;BME280;29709;52.396;16.796;2023-07-22T01:21:34;101146.89;;;17.69;69.38
44044;BME280;29709;52.396;16.796;2023-07-22T01:24:49;101138.51;;;17.63;71.47
44044;BME280;29709;52.396;16.796;2023-07-22T01:28:10;101147.23;;;17.59;72.26
44044;BME280;29709;52.396;16.796;2023-07-22T01:31:26;101149.16;;;17.59;70.04
44044;BME280;29709;52.396;16.796;2023-07-22T01:34:39;101148.73;;;17.55;69.74
44044;BME280;29709;52.396;16.796;2023-07-22T01:37:53;101154.45;;;17.47;71.13
44044;BME280;29709;52.396;16.796;2023-07-22T01:41:06;101152.30;;;17.43;69.92
44044;BME280;29709;52.396;16.796;2023-07-22T01:44:19;101145.19;;;17.34;72.76
44044;BME280;29709;52.396;16.796;2023-07-22T01:47:32;101150.95;;;17.32;70.38
44044;BME280;29709;52.396;16.796;2023-07-22T01:50:45;101149.41;;;17.29;72.33
44044;BME280;29709;52.396;16.796;2023-07-22T01:54:00;101162.44;;;17.29;70.17
44044;BME280;29709;52.396;16.796;2023-07-22T01:57:14;101149.38;;;17.23;74.07
44044;BME280;29709;52.396;16.796;2023-07-22T02:00:28;101150.24;;;17.23;72.98
44044;BME280;29709;52.396;16.796;2023-07-22T02:03:42;101154.95;;;17.23;70.92
44044;BME280;29709;52.396;16.796;2023-07-22T02:06:55;101151.91;;;17.18;70.84
44044;BME280;29709;52.396;16.796;2023-07-22T02:10:08;101153.17;;;17.15;73.38
44044;BME280;29709;52.396;16.796;2023-07-22T02:13:22;101149.74;;;17.13;74.74
44044;BME280;29709;52.396;16.796;2023-07-22T02:16:36;101145.27;;;17.12;74.66
44044;BME280;29709;52.396;16.796;2023-07-22T02:19:50;101148.62;;;17.08;74.48
44044;BME280;29709;52.396;16.796;2023-07-22T02:23:03;101148.62;;;17.08;71.32
44044;BME280;29709;52.396;16.796;2023-07-22T02:26:16;101149.03;;;17.05;73.79
44044;BME280;29709;52.396;16.796;2023-07-22T02:29:29;101147.95;;;16.99;72.29
44044;BME280;29709;52.396;16.796;2023-07-22T02:32:44;101144.70;;;16.95;73.96
44044;BME280;29709;52.396;16.796;2023-07-22T02:35:57;101156.01;;;16.94;71.75
44044;BME280;29709;52.396;16.796;2023-07-22T02:39:11;101152.78;;;16.90;74.41
44044;BME280;29709;52.396;16.796;2023-07-22T02:42:24;101148.67;;;16.86;74.86
44044;BME280;29709;52.396;16.796;2023-07-22T02:45:37;101150.35;;;16.81;73.18
44044;BME280;29709;52.396;16.796;2023-07-22T02:48:50;101165.02;;;16.74;74.37
44044;BME280;29709;52.396;16.796;2023-07-22T02:52:04;101150.08;;;16.76;72.04
44044;BME280;29709;52.396;16.796;2023-07-22T02:55:18;101149.84;;;16.70;73.87
44044;BME280;29709;52.396;16.796;2023-07-22T02:58:31;101153.37;;;16.64;74.64
44044;BME280;29709;52.396;16.796;2023-07-22T03:01:44;101160.19;;;16.62;75.49
44044;BME280;29709;52.396;16.796;2023-07-22T03:04:57;101162.09;;;16.61;72.68
44044;BME280;29709;52.396;16.796;2023-07-22T03:08:11;101170.55;;;16.53;74.58
44044;BME280;29709;52.396;16.796;2023-07-22T03:11:24;101165.13;;;16.45;74.52
44044;BME280;29709;52.396;16.796;2023-07-22T03:14:38;101171.28;;;16.40;73.76
44044;BME280;29709;52.396;16.796;2023-07-22T03:17:52;101175.52;;;16.36;75.56
44044;BME280;29709;52.396;16.796;2023-07-22T03:21:05;101186.07;;;16.26;75.27
44044;BME280;29709;52.396;16.796;2023-07-22T03:24:18;101183.11;;;16.28;74.41
44044;BME280;29709;52.396;16.796;2023-07-22T03:27:31;101175.16;;;16.25;74.61
44044;BME280;29709;52.396;16.796;2023-07-22T03:30:44;101184.08;;;16.20;76.85
44044;BME280;29709;52.396;16.796;2023-07-22T03:33:58;101186.20;;;16.18;75.00
44044;BME280;29709;52.396;16.796;2023-07-22T03:37:11;101184.48;;;16.17;75.00
44044;BME280;29709;52.396;16.796;2023-07-22T03:40:24;101182.76;;;16.16;77.34
44044;BME280;29709;52.396;16.796;2023-07-22T03:43:43;101183.41;;;16.18;75.35
44044;BME280;29709;52.396;16.796;2023-07-22T03:46:56;101187.25;;;16.17;75.34
44044;BME280;29709;52.396;16.796;2023-07-22T03:50:09;101188.68;;;16.13;77.44
44044;BME280;29709;52.396;16.796;2023-07-22T03:53:22;101185.70;;;16.14;78.06
44044;BME280;29709;52.396;16.796;2023-07-22T03:56:38;101198.34;;;16.17;75.92
44044;BME280;29709;52.396;16.796;2023-07-22T03:59:51;101191.73;;;16.18;78.72
44044;BME280;29709;52.396;16.796;2023-07-22T04:03:04;101190.57;;;16.27;76.98
44044;BME280;29709;52.396;16.796;2023-07-22T04:06:17;101191.88;;;16.31;77.10
44044;BME280;29709;52.396;16.796;2023-07-22T04:09:31;101189.55;;;16.35;77.35
44044;BME280;29709;52.396;16.796;2023-07-22T04:12:44;101183.85;;;16.36;78.72
44044;BME280;29709;52.396;16.796;2023-07-22T04:15:58;101177.69;;;16.41;77.38
44044;BME280;29709;52.396;16.796;2023-07-22T04:19:11;101186.75;;;16.50;77.60
44044;BME280;29709;52.396;16.796;2023-07-22T04:22:24;101191.69;;;16.54;77.49
44044;BME280;29709;52.396;16.796;2023-07-22T04:25:41;101194.13;;;16.64;78.02
44044;BME280;29709;52.396;16.796;2023-07-22T04:28:54;101193.39;;;16.70;78.20
44044;BME280;29709;52.396;16.796;2023-07-22T04:32:08;101194.49;;;16.76;77.79
44044;BME280;29709;52.396;16.796;2023-07-22T04:35:21;101190.27;;;16.80;80.31
44044;BME280;29709;52.396;16.796;2023-07-22T04:38:35;101198.45;;;16.88;78.30
44044;BME280;29709;52.396;16.796;2023-07-22T04:41:48;101206.43;;;16.97;78.68
44044;BME280;29709;52.396;16.796;2023-07-22T04:45:01;101189.18;;;17.02;78.22
44044;BME280;29709;52.396;16.796;2023-07-22T04:48:19;101181.30;;;17.06;79.15
44044;BME280;29709;52.396;16.796;2023-07-22T04:51:32;101193.54;;;17.11;78.67
44044;BME280;29709;52.396;16.796;2023-07-22T04:54:46;101197.41;;;17.17;79.51
44044;BME280;29709;52.396;16.796;2023-07-22T04:58:00;101195.33;;;17.25;78.77
44044;BME280;29709;52.396;16.796;2023-07-22T05:01:13;101190.28;;;17.36;78.88
44044;BME280;29709;52.396;16.796;2023-07-22T05:04:26;101192.26;;;17.42;78.42
44044;BME280;29709;52.396;16.796;2023-07-22T05:07:39;101204.31;;;17.55;78.18
44044;BME280;29709;52.396;16.796;2023-07-22T05:10:52;101203.95;;;17.65;77.02
44044;BME280;29709;52.396;16.796;2023-07-22T05:14:06;101206.98;;;17.70;76.98
44044;BME280;29709;52.396;16.796;2023-07-22T05:17:19;101217.94;;;17.78;76.40
44044;BME280;29709;52.396;16.796;2023-07-22T05:20:32;101214.19;;;17.93;75.94
44044;BME280;29709;52.396;16.796;2023-07-22T05:23:45;101216.80;;;18.07;75.20
44044;BME280;29709;52.396;16.796;2023-07-22T05:26:59;101217.53;;;18.29;75.31
44044;BME280;29709;52.396;16.796;2023-07-22T05:30:12;101209.91;;;18.58;73.26
44044;BME280;29709;52.396;16.796;2023-07-22T05:33:25;101220.69;;;18.81;73.16
44044;BME280;29709;52.396;16.796;2023-07-22T05:36:39;101218.98;;;19.13;72.68
44044;BME280;29709;52.396;16.796;2023-07-22T05:39:52;101220.91;;;19.32;70.67
44044;BME280;29709;52.396;16.796;2023-07-22T05:43:05;101219.62;;;19.41;70.67
44044;BME280;29709;52.396;16.796;2023-07-22T05:46:18;101232.89;;;19.72;70.08
44044;BME280;29709;52.396;16.796;2023-07-22T05:49:31;101236.23;;;20.01;69.38
44044;BME280;29709;52.396;16.796;2023-07-22T05:52:44;101234.21;;;20.21;67.99
44044;BME280;29709;52.396;16.796;2023-07-22T05:55:59;101243.35;;;20.41;67.38
44044;BME280;29709;52.396;16.796;2023-07-22T05:59:12;101234.11;;;20.54;66.44
44044;BME280;29709;52.396;16.796;2023-07-22T06:02:25;101248.38;;;20.71;66.09
44044;BME280;29709;52.396;16.796;2023-07-22T06:05:38;101245.91;;;20.88;65.65
44044;BME280;29709;52.396;16.796;2023-07-22T06:08:51;101239.33;;;21.07;63.85
44044;BME280;29709;52.396;16.796;2023-07-22T06:12:05;101247.72;;;21.07;64.13
44044;BME280;29709;52.396;16.796;2023-07-22T06:15:18;101253.81;;;21.22;64.19
44044;BME280;29709;52.396;16.796;2023-07-22T06:18:31;101255.98;;;21.27;63.42
44044;BME280;29709;52.396;16.796;2023-07-22T06:21:44;101256.95;;;21.39;63.31
44044;BME280;29709;52.396;16.796;2023-07-22T06:24:58;101269.04;;;21.58;62.31
44044;BME280;29709;52.396;16.796;2023-07-22T06:28:11;101263.21;;;21.59;61.80
44044;BME280;29709;52.396;16.796;2023-07-22T06:31:24;101261.70;;;21.57;61.23
44044;BME280;29709;52.396;16.796;2023-07-22T06:34:43;101250.66;;;21.44;61.93
44044;BME280;29709;52.396;16.796;2023-07-22T06:37:56;101254.14;;;21.39;61.80
44044;BME280;29709;52.396;16.796;2023-07-22T06:41:09;101263.85;;;21.37;62.17
44044;BME280;29709;52.396;16.796;2023-07-22T06:44:22;101260.36;;;21.41;62.03
44044;BME280;29709;52.396;16.796;2023-07-22T06:47:36;101253.87;;;21.66;62.26
44044;BME280;29709;52.396;16.796;2023-07-22T06:50:50;101265.05;;;21.90;61.15
44044;BME280;29709;52.396;16.796;2023-07-22T06:54:03;101265.48;;;21.87;60.59
44044;BME280;29709;52.396;16.796;2023-07-22T06:57:16;101263.86;;;21.80;60.49
44044;BME280;29709;52.396;16.796;2023-07-22T07:00:30;101268.20;;;21.76;61.05
44044;BME280;29709;52.396;16.796;2023-07-22T07:03:43;101263.55;;;21.70;60.04
44044;BME280;29709;52.396;16.796;2023-07-22T07:06:56;101290.48;;;21.64;60.83
44044;BME280;29709;52.396;16.796;2023-07-22T07:10:10;101285.74;;;21.65;60.16
44044;BME280;29709;52.396;16.796;2023-07-22T07:13:23;101292.76;;;21.74;60.25
44044;BME280;29709;52.396;16.796;2023-07-22T07:16:36;101291.05;;;21.73;59.39
44044;BME280;29709;52.396;16.796;2023-07-22T07:19:49;101294.73;;;21.92;59.69
44044;BME280;29709;52.396;16.796;2023-07-22T07:23:03;101287.98;;;21.99;58.52
44044;BME280;29709;52.396;16.796;2023-07-22T07:26:16;101282.74;;;22.09;57.80
44044;BME280;29709;52.396;16.796;2023-07-22T07:29:29;101297.86;;;22.02;56.63
44044;BME280;29709;52.396;16.796;2023-07-22T07:32:42;101292.70;;;21.99;58.04
44044;BME280;29709;52.396;16.796;2023-07-22T07:35:56;101295.80;;;22.15;57.38
44044;BME280;29709;52.396;16.796;2023-07-22T07:39:09;101296.58;;;22.23;56.92
44044;BME280;29709;52.396;16.796;2023-07-22T07:42:22;101294.46;;;22.36;57.32
44044;BME280;29709;52.396;16.796;2023-07-22T07:45:39;101301.52;;;22.57;56.20
44044;BME280;29709;52.396;16.796;2023-07-22T07:48:56;101309.53;;;22.72;55.22
44044;BME280;29709;52.396;16.796;2023-07-22T07:52:10;101307.67;;;22.84;54.63
44044;BME280;29709;52.396;16.796;2023-07-22T07:55:23;101314.33;;;23.13;53.69
44044;BME280;29709;52.396;16.796;2023-07-22T07:58:38;101325.43;;;23.08;53.86
44044;BME280;29709;52.396;16.796;2023-07-22T08:01:51;101321.19;;;23.17;53.53
44044;BME280;29709;52.396;16.796;2023-07-22T08:05:06;101328.05;;;23.33;52.53
44044;BME280;29709;52.396;16.796;2023-07-22T08:08:21;101327.77;;;23.23;52.55
44044;BME280;29709;52.396;16.796;2023-07-22T08:11:34;101326.52;;;23.49;51.95
44044;BME280;29709;52.396;16.796;2023-07-22T08:14:47;101311.87;;;23.35;51.86
44044;BME280;29709;52.396;16.796;2023-07-22T08:18:01;101333.08;;;23.43;51.86
44044;BME280;29709;52.396;16.796;2023-07-22T08:21:14;101347.50;;;23.46;51.70
44044;BME280;29709;52.396;16.796;2023-07-22T08:24:27;101342.74;;;23.47;50.94
44044;BME280;29709;52.396;16.796;2023-07-22T08:27:40;101350.17;;;23.53;50.93
44044;BME280;29709;52.396;16.796;2023-07-22T08:30:56;101352.08;;;23.71;50.63
44044;BME280;29709;52.396;16.796;2023-07-22T08:34:16;101349.53;;;23.93;50.42
44044;BME280;29709;52.396;16.796;2023-07-22T08:37:31;101349.18;;;23.89;49.97
44044;BME280;29709;52.396;16.796;2023-07-22T08:40:44;101354.05;;;23.94;49.47
44044;BME280;29709;52.396;16.796;2023-07-22T08:43:59;101357.84;;;23.87;49.04
44044;BME280;29709;52.396;16.796;2023-07-22T08:47:15;101359.54;;;23.77;48.94
44044;BME280;29709;52.396;16.796;2023-07-22T08:50:34;101359.05;;;23.80;48.76
44044;BME280;29709;52.396;16.796;2023-07-22T08:53:50;101367.48;;;23.80;48.71
44044;BME280;29709;52.396;16.796;2023-07-22T08:57:05;101368.42;;;23.74;47.52
44044;BME280;29709;52.396;16.796;2023-07-22T09:00:19;101368.11;;;23.52;47.22
44044;BME280;29709;52.396;16.796;2023-07-22T09:03:33;101370.73;;;23.65;47.48
44044;BME280;29709;52.396;16.796;2023-07-22T09:06:47;101368.57;;;23.79;45.78
44044;BME280;29709;52.396;16.796;2023-07-22T09:10:00;101360.05;;;23.97;46.05
44044;BME280;29709;52.396;16.796;2023-07-22T09:13:18;101363.45;;;24.23;46.11
44044;BME280;29709;52.396;16.796;2023-07-22T09:16:32;101364.92;;;24.13;45.21
44044;BME280;29709;52.396;16.796;2023-07-22T09:19:46;101369.43;;;23.79;45.83
44044;BME280;29709;52.396;16.796;2023-07-22T09:23:04;101365.46;;;23.57;45.89
44044;BME280;29709;52.396;16.796;2023-07-22T09:26:18;101377.32;;;23.29;46.40
44044;BME280;29709;52.396;16.796;2023-07-22T09:29:38;101372.50;;;23.48;45.54
44044;BME280;29709;52.396;16.796;2023-07-22T09:32:55;101364.31;;;23.88;44.08
44044;BME280;29709;52.396;16.796;2023-07-22T09:36:10;101374.34;;;24.07;43.11
44044;BME280;29709;52.396;16.796;2023-07-22T09:39:24;101373.70;;;24.05;42.32
44044;BME280;29709;52.396;16.796;2023-07-22T09:42:37;101382.12;;;23.82;43.57
44044;BME280;29709;52.396;16.796;2023-07-22T09:45:50;101376.21;;;23.60;43.87
44044;BME280;29709;52.396;16.796;2023-07-22T09:49:05;101372.10;;;23.86;43.33
44044;BME280;29709;52.396;16.796;2023-07-22T09:52:19;101388.51;;;24.36;42.01
44044;BME280;29709;52.396;16.796;2023-07-22T09:55:33;101382.87;;;24.47;40.97
44044;BME280;29709;52.396;16.796;2023-07-22T09:58:47;101388.41;;;24.31;41.51
44044;BME280;29709;52.396;16.796;2023-07-22T10:02:02;101379.48;;;24.34;41.20
44044;BME280;29709;52.396;16.796;2023-07-22T10:05:18;101379.20;;;24.47;40.92
44044;BME280;29709;52.396;16.796;2023-07-22T10:08:34;101382.60;;;24.72;40.54
44044;BME280;29709;52.396;16.796;2023-07-22T10:11:49;101384.80;;;24.59;40.73
44044;BME280;29709;52.396;16.796;2023-07-22T10:15:04;101390.59;;;24.40;40.66
44044;BME280;29709;52.396;16.796;2023-07-22T10:18:18;101387.52;;;24.30;40.62
44044;BME280;29709;52.396;16.796;2023-07-22T10:21:33;101401.31;;;24.20;41.06
44044;BME280;29709;52.396;16.796;2023-07-22T10:24:49;101402.27;;;24.02;41.14
44044;BME280;29709;52.396;16.796;2023-07-22T10:28:03;101402.71;;;23.76;40.62
44044;BME280;29709;52.396;16.796;2023-07-22T10:31:17;101403.95;;;23.68;41.20
44044;BME280;29709;52.396;16.796;2023-07-22T10:34:35;101406.54;;;23.93;41.15
44044;BME280;29709;52.396;16.796;2023-07-22T10:37:49;101402.16;;;24.09;41.37
44044;BME280;29709;52.396;16.796;2023-07-22T10:44:26;101395.45;;;24.57;40.37
44044;BME280;29709;52.396;16.796;2023-07-22T10:47:39;101393.18;;;24.94;39.53
44044;BME280;29709;52.396;16.796;2023-07-22T10:50:55;101407.86;;;24.84;37.99
44044;BME280;29709;52.396;16.796;2023-07-22T10:54:12;101405.15;;;24.89;38.13
44044;BME280;29709;52.396;16.796;2023-07-22T10:57:25;101399.72;;;25.11;36.62
44044;BME280;29709;52.396;16.796;2023-07-22T11:00:39;101392.91;;;25.36;37.17
44044;BME280;29709;52.396;16.796;2023-07-22T11:10:52;101394.59;;;24.56;38.06
44044;BME280;29709;52.396;16.796;2023-07-22T11:14:17;101395.26;;;24.87;37.81
44044;BME280;29709;52.396;16.796;2023-07-22T11:17:32;101403.90;;;25.09;37.13
44044;BME280;29709;52.396;16.796;2023-07-22T11:20:46;101408.41;;;25.10;36.33
44044;BME280;29709;52.396;16.796;2023-07-22T11:23:59;101402.61;;;25.28;36.59
44044;BME280;29709;52.396;16.796;2023-07-22T11:27:13;101410.45;;;25.54;36.00
44044;BME280;29709;52.396;16.796;2023-07-22T11:30:27;101406.96;;;25.64;36.53
44044;BME280;29709;52.396;16.796;2023-07-22T11:33:41;101411.34;;;25.72;35.89
44044;BME280;29709;52.396;16.796;2023-07-22T11:36:59;101402.52;;;25.68;36.63
44044;BME280;29709;52.396;16.796;2023-07-22T11:40:12;101407.96;;;25.86;36.03
44044;BME280;29709;52.396;16.796;2023-07-22T11:43:27;101403.25;;;25.75;36.24
44044;BME280;29709;52.396;16.796;2023-07-22T11:46:55;101397.70;;;25.80;35.85
44044;BME280;29709;52.396;16.796;2023-07-22T11:50:05;101393.70;;;25.76;35.01
44044;BME280;29709;52.396;16.796;2023-07-22T11:53:19;101396.99;;;25.73;35.34
44044;BME280;29709;52.396;16.796;2023-07-22T11:56:32;101394.13;;;25.85;35.79
44044;BME280;29709;52.396;16.796;2023-07-22T11:59:47;101381.83;;;26.08;35.63
44044;BME280;29709;52.396;16.796;2023-07-22T12:03:06;101386.41;;;26.14;35.29
44044;BME280;29709;52.396;16.796;2023-07-22T12:06:19;101398.12;;;26.23;35.50
44044;BME280;29709;52.396;16.796;2023-07-22T12:09:33;101391.88;;;26.21;34.91
44044;BME280;29709;52.396;16.796;2023-07-22T12:12:46;101398.14;;;26.06;35.00
44044;BME280;29709;52.396;16.796;2023-07-22T12:16:03;101391.72;;;25.94;35.95
44044;BME280;29709;52.396;16.796;2023-07-22T12:19:17;101389.75;;;26.11;34.50
44044;BME280;29709;52.396;16.796;2023-07-22T12:22:31;101390.77;;;26.05;34.63
44044;BME280;29709;52.396;16.796;2023-07-22T12:25:44;101383.89;;;25.96;35.21
44044;BME280;29709;52.396;16.796;2023-07-22T12:28:57;101387.95;;;26.05;34.57
44044;BME280;29709;52.396;16.796;2023-07-22T12:32:12;101376.10;;;26.03;34.24
44044;BME280;29709;52.396;16.796;2023-07-22T12:35:25;101380.62;;;26.04;34.62
44044;BME280;29709;52.396;16.796;2023-07-22T12:38:38;101388.90;;;26.10;34.43
44044;BME280;29709;52.396;16.796;2023-07-22T12:41:51;101399.65;;;26.13;34.13
44044;BME280;29709;52.396;16.796;2023-07-22T12:45:05;101398.56;;;25.98;34.24
44044;BME280;29709;52.396;16.796;2023-07-22T12:48:18;101400.55;;;25.69;34.70
44044;BME280;29709;52.396;16.796;2023-07-22T12:51:32;101399.59;;;25.63;34.96
44044;BME280;29709;52.396;16.796;2023-07-22T12:54:45;101396.04;;;25.68;34.66
44044;BME280;29709;52.396;16.796;2023-07-22T12:57:58;101392.78;;;25.59;34.78
44044;BME280;29709;52.396;16.796;2023-07-22T13:01:12;101392.63;;;25.66;34.63
44044;BME280;29709;52.396;16.796;2023-07-22T13:04:26;101385.23;;;25.93;34.14
44044;BME280;29709;52.396;16.796;2023-07-22T13:07:39;101384.70;;;26.30;33.93
44044;BME280;29709;52.396;16.796;2023-07-22T13:10:52;101383.47;;;26.59;33.75
44044;BME280;29709;52.396;16.796;2023-07-22T13:14:06;101389.37;;;26.58;32.94
44044;BME280;29709;52.396;16.796;2023-07-22T13:17:19;101397.28;;;26.39;32.69
44044;BME280;29709;52.396;16.796;2023-07-22T13:20:32;101388.21;;;26.03;32.60
44044;BME280;29709;52.396;16.796;2023-07-22T13:23:46;101393.02;;;25.86;32.66
44044;BME280;29709;52.396;16.796;2023-07-22T13:26:59;101390.88;;;25.76;33.03
44044;BME280;29709;52.396;16.796;2023-07-22T13:30:12;101394.53;;;25.94;32.96
44044;BME280;29709;52.396;16.796;2023-07-22T13:33:26;101392.76;;;25.87;32.23
44044;BME280;29709;52.396;16.796;2023-07-22T13:36:40;101392.56;;;25.94;32.56
44044;BME280;29709;52.396;16.796;2023-07-22T13:39:53;101398.65;;;25.86;32.31
44044;BME280;29709;52.396;16.796;2023-07-22T13:43:06;101393.62;;;25.88;32.63
44044;BME280;29709;52.396;16.796;2023-07-22T13:46:19;101391.99;;;25.75;33.00
44044;BME280;29709;52.396;16.796;2023-07-22T13:49:33;101394.72;;;25.87;33.52
44044;BME280;29709;52.396;16.796;2023-07-22T13:52:46;101395.55;;;26.21;33.15
44044;BME280;29709;52.396;16.796;2023-07-22T13:56:00;101393.16;;;26.30;33.34
44044;BME280;29709;52.396;16.796;2023-07-22T13:59:14;101403.50;;;26.41;32.00
44044;BME280;29709;52.396;16.796;2023-07-22T14:02:27;101391.72;;;26.27;32.07
44044;BME280;29709;52.396;16.796;2023-07-22T14:05:40;101400.27;;;25.99;32.26
44044;BME280;29709;52.396;16.796;2023-07-22T14:08:53;101405.40;;;25.85;32.12
44044;BME280;29709;52.396;16.796;2023-07-22T14:12:06;101398.65;;;25.86;32.85
44044;BME280;29709;52.396;16.796;2023-07-22T14:15:20;101399.48;;;25.70;32.72
44044;BME280;29709;52.396;16.796;2023-07-22T14:18:33;101402.19;;;25.65;33.09
44044;BME280;29709;52.396;16.796;2023-07-22T14:21:46;101398.74;;;25.62;32.97
44044;BME280;29709;52.396;16.796;2023-07-22T14:24:59;101392.89;;;25.64;32.69
44044;BME280;29709;52.396;16.796;2023-07-22T14:28:12;101393.10;;;25.74;32.67
44044;BME280;29709;52.396;16.796;2023-07-22T14:31:26;101387.04;;;25.99;33.28
44044;BME280;29709;52.396;16.796;2023-07-22T14:34:39;101380.52;;;26.15;33.04
44044;BME280;29709;52.396;16.796;2023-07-22T14:37:52;101381.72;;;26.19;32.22
44044;BME280;29709;52.396;16.796;2023-07-22T14:41:05;101381.23;;;25.89;31.91
44044;BME280;29709;52.396;16.796;2023-07-22T14:44:19;101375.60;;;25.89;32.44
44044;BME280;29709;52.396;16.796;2023-07-22T14:47:33;101379.51;;;26.05;32.42
44044;BME280;29709;52.396;16.796;2023-07-22T14:50:46;101376.94;;;26.20;31.90
44044;BME280;29709;52.396;16.796;2023-07-22T14:53:59;101378.97;;;26.25;32.00
44044;BME280;29709;52.396;16.796;2023-07-22T14:57:12;101370.02;;;26.28;31.35
44044;BME280;29709;52.396;16.796;2023-07-22T15:00:25;101376.52;;;26.11;31.12
44044;BME280;29709;52.396;16.796;2023-07-22T15:03:38;101379.70;;;25.98;31.32
44044;BME280;29709;52.396;16.796;2023-07-22T15:06:52;101384.12;;;25.94;31.53
44044;BME280;29709;52.396;16.796;2023-07-22T15:10:06;101379.86;;;25.92;32.02
44044;BME280;29709;52.396;16.796;2023-07-22T15:13:20;101376.19;;;25.91;31.63
44044;BME280;29709;52.396;16.796;2023-07-22T15:16:33;101373.22;;;25.98;31.43
44044;BME280;29709;52.396;16.796;2023-07-22T15:19:46;101369.55;;;25.97;31.65
44044;BME280;29709;52.396;16.796;2023-07-22T15:22:59;101375.50;;;25.84;32.12
44044;BME280;29709;52.396;16.796;2023-07-22T15:26:13;101367.65;;;26.03;32.07
44044;BME280;29709;52.396;16.796;2023-07-22T15:29:26;101368.43;;;25.98;31.45
44044;BME280;29709;52.396;16.796;2023-07-22T15:32:39;101388.41;;;25.97;31.51
44044;BME280;29709;52.396;16.796;2023-07-22T15:35:55;101375.18;;;25.97;31.33
44044;BME280;29709;52.396;16.796;2023-07-22T15:39:08;101377.64;;;25.94;31.39
44044;BME280;29709;52.396;16.796;2023-07-22T15:42:21;101372.70;;;26.01;30.99
44044;BME280;29709;52.396;16.796;2023-07-22T15:45:34;101382.94;;;25.90;30.95
44044;BME280;29709;52.396;16.796;2023-07-22T15:48:47;101378.77;;;25.76;30.93
44044;BME280;29709;52.396;16.796;2023-07-22T15:52:01;101381.32;;;25.77;31.21
44044;BME280;29709;52.396;16.796;2023-07-22T15:55:14;101370.22;;;25.71;31.17
44044;BME280;29709;52.396;16.796;2023-07-22T15:58:27;101371.97;;;25.60;31.41
44044;BME280;29709;52.396;16.796;2023-07-22T16:01:40;101374.34;;;25.51;31.50
44044;BME280;29709;52.396;16.796;2023-07-22T16:04:55;101373.41;;;25.46;31.15
44044;BME280;29709;52.396;16.796;2023-07-22T16:08:08;101374.92;;;25.37;31.42
44044;BME280;29709;52.396;16.796;2023-07-22T16:11:21;101382.66;;;25.29;31.45
44044;BME280;29709;52.396;16.796;2023-07-22T16:14:35;101383.02;;;25.33;31.72
44044;BME280;29709;52.396;16.796;2023-07-22T16:17:54;101374.38;;;25.23;31.76
44044;BME280;29709;52.396;16.796;2023-07-22T16:21:07;101380.71;;;25.01;32.03
44044;BME280;29709;52.396;16.796;2023-07-22T16:24:21;101380.95;;;24.88;31.97
44044;BME280;29709;52.396;16.796;2023-07-22T16:27:34;101382.72;;;24.66;32.44
44044;BME280;29709;52.396;16.796;2023-07-22T16:30:47;101391.43;;;24.53;32.63
44044;BME280;29709;52.396;16.796;2023-07-22T16:34:00;101386.17;;;24.44;32.70
44044;BME280;29709;52.396;16.796;2023-07-22T16:37:16;101385.08;;;24.45;32.97
44044;BME280;29709;52.396;16.796;2023-07-22T16:40:29;101381.77;;;24.48;32.84
44044;BME280;29709;52.396;16.796;2023-07-22T16:43:43;101383.50;;;24.50;33.10
44044;BME280;29709;52.396;16.796;2023-07-22T16:46:56;101379.70;;;24.44;33.26
44044;BME280;29709;52.396;16.796;2023-07-22T16:50:09;101384.59;;;24.37;33.33